Time;durP1;ratioP1;P1;durP2;ratioP2;P2;SDS_P1;SDS_P2;PMS_P1;PMS_P2;Temp;Humidity;BMP_temperature;BMP_pressure;BME280_temperature;BME280_humidity;BME280_pressure;Samples;Min_cycle;Max_cycle;Signal;HPM_P1;HPM_P2
2022/01/25 00:26:35;;;;;;;29.95;12.23;;;;;;;1.55;100.00;102676.38;5040733;28;20520;-53
2022/01/25 00:31:29;;;;;;;28.17;12.23;;;;;;;1.51;100.00;102658.22;5045603;28;20429;-55
2022/01/25 00:33:55;;;;;;;28.58;13.13;;;;;;;1.54;100.00;102662.47;5039700;28;20036;-50
2022/01/25 00:36:24;;;;;;;31.70;14.88;;;;;;;1.54;100.00;102662.47;5026105;28;20045;-49
2022/01/25 00:38:51;;;;;;;37.90;16.83;;;;;;;1.55;100.00;102679.84;5040148;28;20032;-56
2022/01/25 00:41:17;;;;;;;31.40;14.88;;;;;;;1.53;100.00;102668.63;5039782;28;20045;-51
2022/01/25 00:43:43;;;;;;;34.95;14.50;;;;;;;1.50;100.00;102674.00;5036749;28;20036;-56
2022/01/25 00:46:11;;;;;;;32.03;15.18;;;;;;;1.50;100.00;102676.63;5043032;28;20032;-54
2022/01/25 00:54:03;;;;;;;35.50;14.23;;;;;;;1.50;100.00;102674.00;5043615;28;20084;-54
2022/01/25 00:56:45;;;;;;;35.03;15.40;;;;;;;1.52;100.00;102675.63;5038376;28;20812;-53
2022/01/25 00:59:18;;;;;;;31.80;14.95;;;;;;;1.51;100.00;102684.38;5040402;28;20477;-56
2022/01/25 01:01:45;;;;;;;34.10;14.18;;;;;;;1.49;100.00;102677.53;5030534;28;20041;-51
2022/01/25 01:04:11;;;;;;;30.52;14.02;;;;;;;1.47;100.00;102688.09;5034785;28;20029;-51
2022/01/25 01:06:38;;;;;;;31.80;15.35;;;;;;;1.46;100.00;102682.94;5035872;28;20393;-55
2022/01/25 01:09:13;;;;;;;37.08;16.58;;;;;;;1.45;100.00;102683.84;5034611;28;20025;-50
2022/01/25 01:11:51;;;;;;;30.15;13.82;;;;;;;1.44;100.00;102680.38;5043712;28;20116;-49
2022/01/25 01:14:26;;;;;;;30.17;13.25;;;;;;;1.42;100.00;102682.25;5040368;28;20029;-56
2022/01/25 01:48:27;;;;;;;30.20;13.43;;;;;;;1.34;100.00;102683.53;5044386;28;20106;-53
2022/01/25 01:50:55;;;;;;;27.52;12.55;;;;;;;1.32;100.00;102681.03;5043762;28;20120;-56
2022/01/25 01:53:21;;;;;;;32.85;13.88;;;;;;;1.29;100.00;102674.19;5043175;28;20497;-52
2022/01/25 01:55:47;;;;;;;32.70;14.40;;;;;;;1.30;100.00;102675.00;5055155;28;20041;-54
2022/01/25 01:58:14;;;;;;;34.58;15.50;;;;;;;1.28;100.00;102677.69;5043977;28;20470;-56
2022/01/25 02:00:43;;;;;;;30.55;13.80;;;;;;;1.27;100.00;102677.78;5033750;28;20033;-56
2022/01/25 02:03:09;;;;;;;34.35;13.98;;;;;;;1.24;100.00;102676.16;5053254;28;20043;-51
2022/01/25 02:05:36;;;;;;;31.13;13.27;;;;;;;1.26;100.00;102668.25;5055637;28;20393;-52
2022/01/25 02:08:02;;;;;;;35.42;15.93;;;;;;;1.25;100.00;102677.84;5048926;28;20059;-55
2022/01/25 02:10:28;;;;;;;38.40;16.15;;;;;;;1.26;100.00;102687.38;5020804;28;20037;-52
2022/01/25 02:12:54;;;;;;;40.88;16.55;;;;;;;1.24;100.00;102676.16;5052241;28;20037;-54
2022/01/25 02:15:21;;;;;;;35.17;15.75;;;;;;;1.23;100.00;102671.00;5055311;28;20131;-52
2022/01/25 02:23:22;;;;;;;34.35;16.25;;;;;;;1.24;100.00;102670.94;5041320;28;20040;-57
2022/01/25 02:25:49;;;;;;;32.08;13.18;;;;;;;1.23;100.00;102660.56;5056509;28;20028;-52
2022/01/25 02:28:17;;;;;;;34.30;14.40;;;;;;;1.23;100.00;102664.00;5047930;28;20146;-51
2022/01/25 02:30:44;;;;;;;39.22;15.57;;;;;;;1.22;100.00;102664.09;5050501;28;20053;-56
2022/01/25 02:33:09;;;;;;;36.03;15.57;;;;;;;1.21;100.00;102668.47;5054577;28;20055;-50
2022/01/25 02:35:36;;;;;;;28.25;13.93;;;;;;;1.22;100.00;102666.72;5054074;28;20485;-50
2022/01/25 02:38:01;;;;;;;31.65;14.48;;;;;;;1.22;100.00;102667.56;5047021;28;20086;-55
2022/01/25 02:40:27;;;;;;;29.15;13.57;;;;;;;1.23;100.00;102658.78;5043850;28;20033;-54
2022/01/25 02:42:53;;;;;;;32.63;13.50;;;;;;;1.24;100.00;102649.16;5045630;28;20032;-55
2022/01/25 02:45:19;;;;;;;30.15;13.85;;;;;;;1.28;100.00;102650.72;5045865;28;20116;-53
2022/01/25 02:50:29;;;;;;;35.92;13.73;;;;;;;1.31;100.00;102663.63;5050846;28;20040;-54
2022/01/25 02:52:55;;;;;;;36.13;14.70;;;;;;;1.30;100.00;102660.16;5053042;28;20032;-53
2022/01/25 02:55:21;;;;;;;36.53;15.10;;;;;;;1.30;100.00;102665.41;5052449;28;20547;-52
2022/01/25 02:57:47;;;;;;;31.33;13.05;;;;;;;1.33;100.00;102667.00;5045079;28;20060;-56
2022/01/25 03:00:13;;;;;;;43.67;18.42;;;;;;;1.33;100.00;102667.00;5044508;28;20028;-55
2022/01/25 03:02:39;;;;;;;37.50;16.63;;;;;;;1.34;100.00;102665.25;5045313;28;20033;-54
2022/01/25 03:05:06;;;;;;;33.78;16.00;;;;;;;1.34;100.00;102665.25;5046564;28;20127;-49
2022/01/25 03:07:33;;;;;;;39.88;14.88;;;;;;;1.34;100.00;102666.06;5039285;28;20029;-55
2022/01/25 03:09:59;;;;;;;38.22;16.30;;;;;;;1.34;100.00;102657.41;5042028;28;20029;-54
2022/01/25 03:12:58;;;;;;;34.38;14.77;;;;;;;1.35;100.00;102656.50;5027150;28;20029;-54
2022/01/25 03:18:07;;;;;;;33.83;15.15;;;;;;;1.36;100.00;102651.16;5040397;28;20083;-56
2022/01/25 03:20:58;;;;;;;35.90;16.55;;;;;;;1.37;100.00;102638.94;5044578;28;20065;-54
2022/01/25 03:23:21;;;;;;;31.55;14.27;;;;;;;1.37;100.00;102658.09;5040089;28;20461;-54
2022/01/25 03:25:48;;;;;;;38.42;15.38;;;;;;;1.38;100.00;102659.78;5038407;28;20025;-52
2022/01/25 03:28:18;;;;;;;39.10;16.65;;;;;;;1.38;100.00;102656.34;5042498;28;20036;-49
2022/01/25 03:30:44;;;;;;;33.38;13.73;;;;;;;1.36;100.00;102656.41;5044298;28;20025;-51
2022/01/25 03:33:10;;;;;;;39.65;16.48;;;;;;;1.35;100.00;102654.72;5048789;28;20413;-51
2022/01/25 03:35:36;;;;;;;35.65;15.85;;;;;;;1.35;100.00;102654.72;5043853;28;20075;-55
2022/01/25 03:38:01;;;;;;;33.75;15.88;;;;;;;1.35;100.00;102664.34;5040682;28;20144;-55
2022/01/25 03:40:27;;;;;;;41.20;16.00;;;;;;;1.35;100.00;102659.94;5046442;28;20068;-53
2022/01/25 03:42:54;;;;;;;35.92;14.80;;;;;;;1.34;100.00;102657.41;5043454;28;20110;-52
2022/01/25 03:45:22;;;;;;;36.60;13.15;;;;;;;1.31;100.00;102655.78;5046090;28;20041;-54
2022/01/25 03:50:31;;;;;;;39.42;16.17;;;;;;;1.30;100.00;102656.72;5045816;28;20040;-57
2022/01/25 03:52:56;;;;;;;38.58;16.40;;;;;;;1.28;100.00;102654.16;5051950;28;20036;-52
2022/01/25 03:55:22;;;;;;;35.45;14.57;;;;;;;1.26;100.00;102655.16;5030309;28;20116;-52
2022/01/25 03:57:47;;;;;;;38.17;17.27;;;;;;;1.25;100.00;102651.72;5042862;28;20022;-52
2022/01/25 04:00:14;;;;;;;37.80;16.30;;;;;;;1.24;100.00;102644.81;5042275;28;20068;-53
2022/01/25 04:02:48;;;;;;;39.17;15.57;;;;;;;1.24;100.00;102649.16;5046399;28;20563;-52
2022/01/25 04:05:21;;;;;;;37.50;16.33;;;;;;;1.24;100.00;102647.44;5038862;28;20562;-52
2022/01/25 04:07:50;;;;;;;44.53;15.23;;;;;;;1.23;100.00;102642.25;5042620;28;20033;-56
2022/01/25 04:10:19;;;;;;;38.80;16.67;;;;;;;1.22;100.00;102649.25;5041582;28;20087;-54
2022/01/25 04:12:47;;;;;;;34.38;13.52;;;;;;;1.22;100.00;102651.88;5045774;28;20102;-57
2022/01/25 04:15:13;;;;;;;41.00;16.02;;;;;;;1.23;100.00;102647.50;5045913;28;20477;-51
2022/01/25 04:17:42;;;;;;;44.20;18.08;;;;;;;1.23;100.00;102642.25;5046637;28;20040;-53
2022/01/25 04:20:11;;;;;;;37.35;16.67;;;;;;;1.22;100.00;102645.81;5041532;28;20073;-52
2022/01/25 04:25:20;;;;;;;46.75;16.63;;;;;;;1.20;100.00;102656.31;5045186;28;20039;-52
2022/01/25 04:27:46;;;;;;;34.25;14.13;;;;;;;1.19;100.00;102657.25;5045982;28;20524;-54
2022/01/25 04:30:12;;;;;;;40.28;17.38;;;;;;;1.20;100.00;102656.31;5041790;28;20041;-52
2022/01/25 04:32:50;;;;;;;41.92;15.95;;;;;;;1.20;100.00;102645.03;5048815;28;20118;-55
2022/01/25 04:54:18;;;;;;;27.30;14.40;;;;;;;1.24;100.00;102638.72;5050848;28;20041;-54
2022/01/25 04:57:00;;;;;;;31.20;13.68;;;;;;;1.24;100.00;102636.09;5052411;28;20108;-51
2022/01/25 05:01:55;;;;;;;35.15;16.35;;;;;;;1.26;100.00;102639.50;5049732;28;20082;-54
2022/01/25 05:04:28;;;;;;;39.40;15.48;;;;;;;1.24;100.00;102641.31;5043534;28;20474;-51
2022/01/25 05:06:58;;;;;;;36.00;14.10;;;;;;;1.23;100.00;102637.88;5043371;28;20368;-52
2022/01/25 05:09:23;;;;;;;30.92;14.63;;;;;;;1.23;100.00;102640.50;5044359;28;20033;-54
2022/01/25 05:11:50;;;;;;;28.73;12.65;;;;;;;1.22;100.00;102638.81;5053365;28;20451;-51
2022/01/25 05:16:51;;;;;;;37.10;14.95;;;;;;;1.18;100.00;102642.47;5042607;28;20532;-51
2022/01/25 05:24:27;;;;;;;30.92;13.45;;;;;;;1.17;100.00;102632.97;5041444;28;20454;-51
2022/01/25 05:26:53;;;;;;;34.05;13.52;;;;;;;1.17;100.00;102632.97;5048988;28;20040;-55
2022/01/25 05:29:18;;;;;;;26.35;12.50;;;;;;;1.16;100.00;102639.13;5041560;28;20485;-50
2022/01/25 05:31:43;;;;;;;30.27;13.20;;;;;;;1.13;100.00;102633.19;5053248;28;20029;-55
2022/01/25 05:34:09;;;;;;;35.85;15.15;;;;;;;1.10;100.00;102636.81;5036972;28;20061;-50
2022/01/25 05:36:36;;;;;;;33.90;14.93;;;;;;;1.09;100.00;102638.56;5048488;28;20125;-53
2022/01/25 05:39:09;;;;;;;34.63;13.73;;;;;;;1.08;100.00;102642.13;5046117;28;20032;-51
2022/01/25 05:41:35;;;;;;;28.38;12.10;;;;;;;1.08;100.00;102638.66;5047488;28;20500;-51
2022/01/25 05:49:20;;;;;;;35.20;13.43;;;;;;;1.07;100.00;102627.34;5017057;28;20493;-54
2022/01/25 05:51:45;;;;;;;33.60;12.45;;;;;;;1.09;100.00;102633.34;5060508;28;20855;-54
2022/01/25 05:54:12;;;;;;;27.85;11.63;;;;;;;1.09;100.00;102633.34;5053071;28;20641;-55
2022/01/25 05:56:37;;;;;;;37.10;15.10;;;;;;;1.09;100.00;102635.97;5052192;28;20095;-52
2022/01/25 05:59:03;;;;;;;34.47;13.15;;;;;;;1.09;100.00;102629.91;5045308;28;20056;-52
2022/01/25 06:01:28;;;;;;;35.95;15.68;;;;;;;1.09;100.00;102627.28;5047472;28;20029;-51
2022/01/25 06:03:54;;;;;;;39.22;14.95;;;;;;;1.09;100.00;102630.75;5051709;28;20036;-51
2022/01/25 06:06:20;;;;;;;32.45;12.88;;;;;;;1.06;100.00;102623.06;5051784;28;20060;-48
2022/01/25 06:08:45;;;;;;;27.00;11.30;;;;;;;1.06;100.00;102628.28;5023677;28;20628;-53
2022/01/25 06:11:11;;;;;;;23.67;12.45;;;;;;;1.05;100.00;102633.56;5049449;28;20031;-51
2022/01/25 06:13:36;;;;;;;34.05;14.25;;;;;;;1.06;100.00;102633.50;5058907;28;20042;-54
2022/01/25 06:16:02;;;;;;;34.22;14.27;;;;;;;1.05;100.00;102630.97;5050482;28;20051;-49
2022/01/25 06:18:27;;;;;;;35.10;13.65;;;;;;;1.05;100.00;102630.97;5047285;28;20029;-51
2022/01/25 06:20:53;;;;;;;36.10;15.85;;;;;;;1.04;100.00;102635.34;5040620;28;20116;-49
2022/01/25 06:23:18;;;;;;;28.70;14.23;;;;;;;1.03;100.00;102628.44;5058726;28;20369;-52
2022/01/25 06:25:43;;;;;;;32.72;13.35;;;;;;;1.01;100.00;102622.44;5054368;28;20505;-51
2022/01/25 06:28:09;;;;;;;30.30;11.95;;;;;;;0.94;100.00;102628.06;5048191;28;20091;-52
2022/01/25 06:30:34;;;;;;;32.67;13.63;;;;;;;0.90;100.00;102632.56;5046415;28;20112;-52
2022/01/25 06:33:00;;;;;;;28.63;12.93;;;;;;;0.89;100.00;102630.88;5045301;28;20532;-52
2022/01/25 06:35:31;;;;;;;28.48;11.65;;;;;;;0.91;100.00;102623.81;5041142;28;20477;-50
2022/01/25 06:37:56;;;;;;;29.88;11.80;;;;;;;0.91;100.00;102629.03;5049053;28;20466;-56
2022/01/25 06:40:24;;;;;;;35.47;15.77;;;;;;;0.89;100.00;102635.25;5044287;28;20075;-53
2022/01/25 06:42:49;;;;;;;30.33;12.77;;;;;;;0.89;100.00;102633.50;5045213;28;20075;-52
2022/01/25 06:45:18;;;;;;;31.25;12.68;;;;;;;0.91;100.00;102638.66;5051406;28;20033;-55
2022/01/25 06:47:45;;;;;;;28.38;12.32;;;;;;;0.92;100.00;102632.50;5039209;28;20112;-56
2022/01/25 06:50:12;;;;;;;24.65;12.15;;;;;;;0.93;100.00;102640.28;5034191;28;20025;-51
2022/01/25 06:52:40;;;;;;;28.83;12.38;;;;;;;0.89;100.00;102643.94;5042701;28;20394;-53
2022/01/25 06:55:08;;;;;;;32.80;13.50;;;;;;;0.89;100.00;102651.78;5042170;28;20556;-54
2022/01/25 06:57:33;;;;;;;32.58;13.02;;;;;;;0.91;100.00;102649.09;5040473;28;20068;-56
2022/01/25 06:59:59;;;;;;;28.02;12.00;;;;;;;0.91;100.00;102652.56;5021486;28;20063;-54
2022/01/25 07:02:24;;;;;;;31.73;13.40;;;;;;;0.90;100.00;102648.22;5028113;28;20624;-50
2022/01/25 07:04:49;;;;;;;31.27;13.30;;;;;;;0.89;100.00;102653.53;5036668;28;20053;-52
2022/01/25 07:07:15;;;;;;;31.85;12.73;;;;;;;0.88;100.00;102655.31;5045029;28;20086;-54
2022/01/25 07:09:40;;;;;;;26.83;11.95;;;;;;;0.90;100.00;102648.22;5039041;28;20147;-53
2022/01/25 07:12:06;;;;;;;26.02;11.50;;;;;;;0.92;100.00;102650.78;5042136;28;20126;-54
2022/01/25 07:14:32;;;;;;;27.25;12.95;;;;;;;0.90;100.00;102648.22;5047370;28;20029;-56
2022/01/25 07:16:57;;;;;;;31.33;13.35;;;;;;;0.91;100.00;102652.56;5041172;28;20025;-51
2022/01/25 07:19:24;;;;;;;33.33;14.38;;;;;;;0.90;100.00;102648.22;5043861;28;20418;-54
2022/01/25 07:21:49;;;;;;;39.05;14.98;;;;;;;0.83;100.00;102655.53;5042312;28;20040;-58
2022/01/25 07:24:15;;;;;;;33.53;13.23;;;;;;;0.78;100.00;102643.63;5047438;28;20029;-55
2022/01/25 07:26:40;;;;;;;34.35;14.13;;;;;;;0.77;100.00;102657.59;5040954;28;20071;-50
2022/01/25 07:29:06;;;;;;;28.45;11.57;;;;;;;0.78;100.00;102656.69;5042218;28;20029;-53
2022/01/25 07:31:31;;;;;;;25.63;13.00;;;;;;;0.78;100.00;102656.69;5039623;28;20032;-52
2022/01/25 07:33:56;;;;;;;24.55;12.38;;;;;;;0.81;100.00;102653.91;5023430;28;20029;-51
2022/01/25 07:36:23;;;;;;;25.38;12.00;;;;;;;0.84;100.00;102656.38;5042396;28;20045;-56
2022/01/25 07:38:49;;;;;;;23.17;10.32;;;;;;;0.84;100.00;102654.59;5042288;28;20033;-53
2022/01/25 07:41:14;;;;;;;27.00;12.18;;;;;;;0.83;100.00;102665.16;5040997;28;20115;-48
2022/01/25 07:43:39;;;;;;;26.30;11.85;;;;;;;0.81;100.00;102661.75;5045697;28;21374;-54
2022/01/25 07:46:05;;;;;;;28.00;12.10;;;;;;;0.78;100.00;102661.91;5044526;28;20580;-56
2022/01/25 07:48:31;;;;;;;37.55;15.68;;;;;;;0.75;100.00;102659.41;5043776;28;20071;-54
2022/01/25 07:50:57;;;;;;;39.15;14.07;;;;;;;0.76;100.00;102661.13;5043825;28;20115;-54
2022/01/25 07:53:22;;;;;;;30.15;12.00;;;;;;;0.80;100.00;102666.13;5039959;28;20025;-52
2022/01/25 07:55:48;;;;;;;30.08;12.75;;;;;;;0.79;100.00;102660.97;5045708;28;20491;-52
2022/01/25 07:58:13;;;;;;;30.83;12.50;;;;;;;0.81;100.00;102656.53;5040406;28;20059;-52
2022/01/25 08:00:39;;;;;;;27.83;13.43;;;;;;;0.84;100.00;102654.59;5046002;28;20029;-55
2022/01/25 08:03:04;;;;;;;26.27;12.50;;;;;;;0.82;100.00;102650.38;5042298;28;20033;-54
2022/01/25 08:05:31;;;;;;;26.58;12.63;;;;;;;0.80;100.00;102654.81;5047574;28;20522;-50
2022/01/25 08:07:58;;;;;;;26.75;11.95;;;;;;;0.80;100.00;102660.91;5048096;28;20086;-49
2022/01/25 08:10:24;;;;;;;28.50;12.13;;;;;;;0.77;100.00;102660.19;5044050;28;20033;-52
2022/01/25 08:12:49;;;;;;;30.27;12.88;;;;;;;0.77;100.00;102655.81;5053076;28;20029;-51
2022/01/25 08:15:16;;;;;;;28.52;12.95;;;;;;;0.72;100.00;102670.03;5045117;28;20078;-54
2022/01/25 08:17:42;;;;;;;33.10;14.48;;;;;;;0.67;100.00;102662.41;5053158;28;20059;-54
2022/01/25 08:20:07;;;;;;;29.40;13.32;;;;;;;0.64;100.00;102662.56;5044577;28;20025;-51
2022/01/25 08:22:33;;;;;;;32.95;14.68;;;;;;;0.64;100.00;102668.63;5038291;28;20021;-53
2022/01/25 08:24:59;;;;;;;31.27;12.38;;;;;;;0.65;100.00;102674.72;5032866;28;20128;-54
2022/01/25 08:27:25;;;;;;;31.85;14.68;;;;;;;0.70;100.00;102675.34;5043139;28;20041;-54
2022/01/25 08:29:51;;;;;;;33.15;12.77;;;;;;;0.76;100.00;102674.19;5040265;28;20504;-53
2022/01/25 08:32:17;;;;;;;33.13;13.55;;;;;;;0.77;100.00;102679.31;5034738;28;20032;-54
2022/01/25 08:34:42;;;;;;;34.08;12.40;;;;;;;0.80;100.00;102678.31;5038057;28;20489;-49
2022/01/25 08:37:08;;;;;;;29.60;13.35;;;;;;;0.81;100.00;102680.03;5050169;28;20133;-50
2022/01/25 08:39:33;;;;;;;30.50;11.77;;;;;;;0.82;100.00;102676.50;5054236;28;20028;-54
2022/01/25 08:41:59;;;;;;;25.90;12.38;;;;;;;0.82;100.00;102668.66;5045702;28;20028;-52
2022/01/25 08:44:24;;;;;;;28.90;13.20;;;;;;;0.83;100.00;102678.19;5028669;28;20033;-52
2022/01/25 08:46:50;;;;;;;25.98;11.00;;;;;;;0.82;100.00;102671.28;5052161;28;20060;-54
2022/01/25 08:49:16;;;;;;;32.83;13.68;;;;;;;0.84;100.00;102674.66;5044139;28;20043;-53
2022/01/25 08:51:41;;;;;;;32.50;12.13;;;;;;;0.82;100.00;102679.09;5043285;28;20533;-56
2022/01/25 08:54:08;;;;;;;26.08;11.10;;;;;;;0.84;100.00;102674.66;5041215;28;20474;-50
2022/01/25 08:56:34;;;;;;;28.90;11.02;;;;;;;0.83;100.00;102683.44;5047280;28;20091;-52
2022/01/25 08:58:59;;;;;;;26.75;11.43;;;;;;;0.86;100.00;102691.13;5030394;28;20040;-51
2022/01/25 09:01:26;;;;;;;28.50;11.48;;;;;;;0.90;100.00;102690.03;5062270;28;20029;-49
2022/01/25 09:03:54;;;;;;;30.75;12.15;;;;;;;0.90;100.00;102692.63;5051749;28;20028;-51
2022/01/25 09:06:20;;;;;;;26.70;12.13;;;;;;;0.92;100.00;102688.19;5049969;28;20041;-51
2022/01/25 09:08:46;;;;;;;32.63;12.88;;;;;;;0.91;100.00;102683.91;5047851;28;20033;-52
2022/01/25 09:11:11;;;;;;;37.35;15.60;;;;;;;0.92;100.00;102685.56;5061092;28;20056;-50
2022/01/25 09:13:38;;;;;;;33.08;14.85;;;;;;;0.93;100.00;102684.69;5034188;28;20029;-55
2022/01/25 09:16:04;;;;;;;32.33;13.25;;;;;;;0.86;100.00;102684.13;5040738;28;20086;-54
2022/01/25 09:18:29;;;;;;;32.88;12.75;;;;;;;0.84;100.00;102685.09;5046993;28;20037;-53
2022/01/25 09:20:56;;;;;;;29.73;14.02;;;;;;;0.83;100.00;102694.72;5054337;28;20046;-55
2022/01/25 09:23:23;;;;;;;39.35;17.23;;;;;;;0.84;100.00;102692.94;5050116;28;20029;-52
2022/01/25 09:25:49;;;;;;;36.05;14.40;;;;;;;0.84;100.00;102699.00;5051400;28;20414;-53
2022/01/25 09:28:15;;;;;;;24.55;12.00;;;;;;;0.84;100.00;102700.78;5055037;28;20048;-52
2022/01/25 09:30:41;;;;;;;36.70;12.77;;;;;;;0.83;100.00;102709.53;5054106;28;20382;-55
2022/01/25 09:33:07;;;;;;;29.23;12.00;;;;;;;0.82;100.00;102702.59;5051674;28;20469;-51
2022/01/25 09:35:32;;;;;;;33.88;15.10;;;;;;;0.81;100.00;102698.31;5037881;28;20038;-52
2022/01/25 09:37:58;;;;;;;36.42;13.48;;;;;;;0.84;100.00;102706.84;5050626;28;20032;-51
2022/01/25 09:40:24;;;;;;;33.70;13.70;;;;;;;0.87;100.00;102714.53;5046583;28;20082;-56
2022/01/25 09:42:52;;;;;;;35.08;12.50;;;;;;;0.90;100.00;102710.91;5046009;28;20037;-50
2022/01/25 09:45:18;;;;;;;32.47;13.52;;;;;;;0.89;100.00;102700.56;5035301;28;20085;-51
2022/01/25 09:47:45;;;;;;;34.70;11.95;;;;;;;0.90;100.00;102710.91;5043377;28;20048;-52
2022/01/25 09:50:10;;;;;;;28.17;12.88;;;;;;;0.92;100.00;102706.47;5044290;28;20552;-56
2022/01/25 09:52:35;;;;;;;28.67;13.95;;;;;;;0.96;100.00;102710.66;5033861;28;20037;-53
2022/01/25 09:55:01;;;;;;;36.13;14.85;;;;;;;1.01;100.00;102702.59;5047915;28;20108;-51
2022/01/25 09:57:27;;;;;;;34.83;13.63;;;;;;;0.99;100.00;102705.28;5054089;28;20056;-55
2022/01/25 09:59:53;;;;;;;35.10;13.57;;;;;;;0.99;100.00;102710.50;5049657;28;20132;-53
2022/01/25 10:02:47;;;;;;;34.33;13.32;;;;;;;1.03;100.00;102713.78;5046218;28;20025;-55
2022/01/25 10:05:30;;;;;;;35.47;12.85;;;;;;;1.04;100.00;102715.50;5049643;28;20174;-54
2022/01/25 10:08:04;;;;;;;33.15;13.50;;;;;;;1.03;100.00;102716.41;5033355;28;20052;-54
2022/01/25 10:10:30;;;;;;;32.83;14.05;;;;;;;1.01;100.00;102719.09;5049899;28;20103;-54
2022/01/25 10:13:10;;;;;;;34.78;15.30;;;;;;;0.99;100.00;102722.72;5041943;28;20036;-54
2022/01/25 10:15:37;;;;;;;34.80;14.73;;;;;;;0.99;100.00;102723.56;5051643;28;20584;-54
2022/01/25 10:18:04;;;;;;;28.80;12.27;;;;;;;1.00;100.00;102721.78;5035291;28;20044;-54
2022/01/25 10:20:40;;;;;;;37.75;15.02;;;;;;;1.07;100.00;102731.88;5044705;28;20083;-52
2022/01/25 10:23:13;;;;;;;40.80;14.75;;;;;;;1.07;100.00;102728.41;5048431;28;20044;-52
2022/01/25 10:25:45;;;;;;;42.33;16.33;;;;;;;1.05;100.00;102732.84;5039861;28;20029;-55
2022/01/25 10:28:12;;;;;;;40.15;14.95;;;;;;;1.02;100.00;102736.47;5035452;28;20060;-54
2022/01/25 10:30:50;;;;;;;34.42;12.93;;;;;;;1.04;100.00;102725.94;5043971;28;20032;-55
2022/01/25 10:33:43;;;;;;;32.88;14.30;;;;;;;1.08;100.00;102736.19;5041268;28;21211;-54
2022/01/25 10:36:19;;;;;;;35.45;15.13;;;;;;;1.04;100.00;102739.84;5049739;28;20086;-53
2022/01/25 10:38:48;;;;;;;28.02;12.85;;;;;;;1.00;100.00;102738.28;5033276;28;20069;-54
2022/01/25 10:41:17;;;;;;;34.55;15.18;;;;;;;0.94;100.00;102737.75;5045103;28;20487;-54
2022/01/25 10:43:44;;;;;;;31.15;13.50;;;;;;;0.89;100.00;102737.97;5046467;28;20540;-52
2022/01/25 10:46:24;;;;;;;38.80;13.25;;;;;;;0.91;100.00;102741.38;5051058;28;20052;-54
2022/01/25 10:48:52;;;;;;;39.95;14.45;;;;;;;0.96;100.00;102739.38;5030298;28;20129;-54
2022/01/25 10:51:30;;;;;;;37.47;14.38;;;;;;;1.05;100.00;102746.75;5048332;28;20070;-54
2022/01/25 10:54:02;;;;;;;40.10;15.10;;;;;;;1.04;100.00;102745.09;5045307;28;20029;-54
2022/01/25 10:56:37;;;;;;;36.45;12.68;;;;;;;1.09;100.00;102748.31;5044385;28;20083;-52
2022/01/25 10:59:05;;;;;;;34.88;14.20;;;;;;;1.15;100.00;102751.56;5045978;28;20041;-52
2022/01/25 11:01:40;;;;;;;32.47;13.10;;;;;;;1.13;100.00;102748.16;5051137;28;20116;-51
2022/01/25 11:04:14;;;;;;;30.88;13.48;;;;;;;1.17;100.00;102744.50;5034688;28;20088;-52
2022/01/25 11:06:41;;;;;;;31.23;13.07;;;;;;;1.18;100.00;102740.94;5041319;28;20025;-52
2022/01/25 11:09:10;;;;;;;30.45;12.75;;;;;;;1.24;100.00;102740.63;5029121;28;20127;-54
2022/01/25 11:11:49;;;;;;;41.78;15.82;;;;;;;1.30;100.00;102745.59;5019256;28;20527;-50
2022/01/25 11:17:00;;;;;;;41.13;14.32;;;;;;;1.20;100.00;102745.19;5058044;28;20503;-53
2022/01/25 11:19:25;;;;;;;34.30;14.38;;;;;;;1.17;100.00;102740.13;5049674;28;20481;-52
2022/01/25 11:21:52;;;;;;;39.95;15.60;;;;;;;1.11;100.00;102731.72;5052384;28;20062;-52
2022/01/25 11:24:19;;;;;;;35.08;15.70;;;;;;;1.17;100.00;102739.28;5031482;28;20111;-52
2022/01/25 11:26:46;;;;;;;37.90;14.80;;;;;;;1.25;100.00;102742.34;5055154;28;20048;-50
2022/01/25 11:29:12;;;;;;;37.85;15.18;;;;;;;1.29;100.00;102741.25;5046607;28;20024;-55
2022/01/25 11:31:42;;;;;;;40.17;15.35;;;;;;;1.29;100.00;102744.75;5041340;28;20445;-53
2022/01/25 11:34:12;;;;;;;36.55;15.00;;;;;;;1.28;100.00;102739.59;5050262;28;20029;-51
2022/01/25 11:36:55;;;;;;;37.40;15.45;;;;;;;1.28;100.00;102736.97;5047163;28;20036;-55
2022/01/25 11:39:24;;;;;;;39.58;16.08;;;;;;;1.29;100.00;102746.50;5044857;28;20040;-49
2022/01/25 11:42:10;;;;;;;42.22;15.70;;;;;;;1.28;100.00;102742.19;5045913;28;20029;-52
2022/01/25 11:44:49;;;;;;;36.28;13.38;;;;;;;1.33;100.00;102740.19;5039386;28;20075;-51
2022/01/25 11:47:16;;;;;;;36.40;15.02;;;;;;;1.34;100.00;102736.66;5053420;28;20448;-50
2022/01/25 11:49:53;;;;;;;42.35;16.65;;;;;;;1.29;100.00;102734.28;5033581;28;20033;-55
2022/01/25 11:52:20;;;;;;;40.72;14.82;;;;;;;1.28;100.00;102736.97;5043193;28;20136;-50
2022/01/25 11:54:49;;;;;;;36.60;15.68;;;;;;;1.34;100.00;102735.81;5050231;28;20389;-54
2022/01/25 11:57:19;;;;;;;41.78;16.30;;;;;;;1.39;100.00;102729.44;5049622;28;20036;-54
2022/01/25 11:59:54;;;;;;;40.78;15.02;;;;;;;1.40;100.00;102725.06;5044349;28;20032;-51
2022/01/25 12:02:42;;;;;;;43.85;19.23;;;;;;;1.28;100.00;102734.34;5050350;28;20120;-52
2022/01/25 12:05:13;;;;;;;41.92;15.73;;;;;;;1.24;100.00;102733.66;5040817;28;20132;-51
2022/01/25 12:07:41;;;;;;;40.38;17.58;;;;;;;1.27;100.00;102730.06;5042054;28;20029;-55
2022/01/25 12:10:29;;;;;;;39.70;16.65;;;;;;;1.26;100.00;102718.75;5050583;28;20041;-51
2022/01/25 12:13:11;;;;;;;35.67;14.18;;;;;;;1.31;100.00;102715.91;5034375;28;20080;-52
2022/01/25 12:15:36;;;;;;;;;;;;;;;1.38;100.00;102713.84;5042016;28;20032;-52
2022/01/25 12:18:02;;;;;;;39.88;16.50;;;;;;;1.40;100.00;102710.22;5054509;28;20378;-54
2022/01/25 12:20:28;;;;;;;31.55;14.38;;;;;;;1.45;100.00;102715.22;5040929;28;20107;-55
2022/01/25 12:23:17;;;;;;;36.92;15.07;;;;;;;1.49;100.00;102707.13;5052599;28;20122;-51
2022/01/25 12:25:52;;;;;;;44.50;18.40;;;;;;;1.44;100.00;102706.53;5044462;28;20578;-52
2022/01/25 12:28:32;;;;;;;41.63;17.30;;;;;;;1.35;100.00;102706.16;5036799;28;20426;-51
2022/01/25 12:31:01;;;;;;;42.58;16.92;;;;;;;1.31;100.00;102700.22;5040428;28;20054;-52
2022/01/25 12:33:32;;;;;;;37.80;14.88;;;;;;;1.30;100.00;102711.59;5040255;28;20378;-55
2022/01/25 12:36:00;;;;;;;42.50;15.25;;;;;;;1.22;100.00;102711.16;5033937;28;20055;-53
2022/01/25 12:38:39;;;;;;;39.40;15.30;;;;;;;1.22;100.00;102705.91;5038993;28;20474;-52
2022/01/25 12:41:05;;;;;;;31.20;13.40;;;;;;;1.26;100.00;102702.22;5051267;28;20191;-55
2022/01/25 12:43:38;;;;;;;43.20;15.98;;;;;;;1.28;100.00;102697.75;5042121;28;20048;-55
2022/01/25 12:46:08;;;;;;;37.53;14.52;;;;;;;1.36;100.00;102700.00;5043205;28;20059;-51
2022/01/25 12:48:48;;;;;;;44.03;15.13;;;;;;;1.34;100.00;102707.91;5040159;28;20033;-50
2022/01/25 12:51:24;;;;;;;39.17;14.37;;;;;;;1.28;100.00;102701.22;5043180;28;20475;-54
2022/01/25 12:53:53;;;;;;;40.53;16.45;;;;;;;1.27;100.00;102698.69;5039951;28;20031;-56
2022/01/25 12:56:21;;;;;;;36.00;15.85;;;;;;;1.31;100.00;102697.59;5040853;28;20155;-51
2022/01/25 12:58:52;;;;;;;42.08;16.17;;;;;;;1.22;100.00;102690.25;5039021;28;20022;-52
2022/01/25 13:01:20;;;;;;;43.10;18.52;;;;;;;1.22;100.00;102685.84;5035636;28;20509;-55
2022/01/25 13:03:59;;;;;;;40.78;16.88;;;;;;;1.26;100.00;102686.53;5036122;28;20163;-53
2022/01/25 13:06:33;;;;;;;38.20;16.08;;;;;;;1.27;100.00;102677.78;5038595;28;20072;-52
2022/01/25 13:11:49;;;;;;;40.92;15.40;;;;;;;1.19;100.00;102675.56;5035662;28;20036;-51
2022/01/25 13:14:30;;;;;;;43.58;17.58;;;;;;;1.13;100.00;102677.63;5039871;28;20091;-56
2022/01/25 13:16:57;;;;;;;46.75;17.63;;;;;;;1.05;100.00;102671.00;5041117;28;20049;-52